createdAt,value
2019-03-15T00:02:21.078Z,100442.64
2019-03-15T00:04:53.497Z,100449.29
2019-03-15T00:07:25.619Z,100448.91
2019-03-15T00:09:57.711Z,100460.11
2019-03-15T00:12:30.057Z,100454.06
2019-03-15T00:15:02.588Z,100460.90
2019-03-15T00:17:37.565Z,100465.58
2019-03-15T00:20:10.040Z,100470.77
2019-03-15T00:22:42.407Z,100472.89
2019-03-15T00:25:14.790Z,100470.77
2019-03-15T00:27:47.129Z,100473.56
2019-03-15T00:30:19.491Z,100478.28
2019-03-15T00:32:51.865Z,100472.58
2019-03-15T00:35:24.180Z,100471.19
2019-03-15T00:37:56.688Z,100472.89
2019-03-15T00:40:29.232Z,100479.28
2019-03-15T00:43:01.633Z,100479.66
2019-03-15T00:45:34.093Z,100476.58
2019-03-15T00:48:06.495Z,100483.89
2019-03-15T00:50:38.881Z,100478.13
2019-03-15T00:53:11.362Z,100478.84
2019-03-15T00:55:45.469Z,100481.67
2019-03-15T00:58:17.835Z,100482.97
2019-03-15T01:00:49.942Z,100487.27
2019-03-15T01:03:22.572Z,100478.13
2019-03-15T01:05:55.165Z,100475.49
2019-03-15T01:08:27.559Z,100473.66
2019-03-15T01:10:59.921Z,100471.03
2019-03-15T01:13:32.239Z,100469.93
2019-03-15T01:16:04.559Z,100470.89
2019-03-15T01:18:36.916Z,100465.73
2019-03-15T01:21:09.411Z,100459.72
2019-03-15T01:23:41.761Z,100458.59
2019-03-15T01:26:14.088Z,100456.84
2019-03-15T01:28:46.801Z,100449.06
2019-03-15T01:31:19.206Z,100453.43
2019-03-15T01:33:51.561Z,100448.65
2019-03-15T01:36:23.836Z,100448.34
2019-03-15T01:38:56.205Z,100447.89
2019-03-15T01:41:28.478Z,100441.75
2019-03-15T01:44:00.858Z,100441.84
2019-03-15T01:46:33.624Z,100425.97
2019-03-15T01:49:06.291Z,100431.51
2019-03-15T01:51:38.520Z,100422.99
2019-03-15T01:54:10.832Z,100429.06
2019-03-15T01:56:43.207Z,100425.59
2019-03-15T01:59:15.511Z,100426.63
2019-03-15T02:01:47.882Z,100418.11
2019-03-15T02:04:20.225Z,100415.14
2019-03-15T02:06:52.719Z,100409.53
2019-03-15T02:09:25.410Z,100403.95
2019-03-15T02:11:57.979Z,100397.44
2019-03-15T02:14:30.561Z,100402.95
2019-03-15T02:17:03.107Z,100406.05
2019-03-15T02:19:35.495Z,100406.46
2019-03-15T02:22:08.528Z,100397.78
2019-03-15T02:24:41.603Z,100399.94
2019-03-15T02:27:14.142Z,100395.48
2019-03-15T02:29:47.265Z,100394.59
2019-03-15T02:32:19.732Z,100390.61
2019-03-15T02:34:53.921Z,100387.72
2019-03-15T02:37:26.524Z,100381.64
2019-03-15T02:39:59.396Z,100376.58
2019-03-15T02:42:32.164Z,100382.36
2019-03-15T02:45:06.187Z,100367.16
2019-03-15T02:47:40.000Z,100367.70
2019-03-15T02:50:12.896Z,100360.47
2019-03-15T02:52:45.178Z,100363.54
2019-03-15T02:55:17.825Z,100359.32
2019-03-15T02:57:50.051Z,100366.84
2019-03-15T03:00:22.374Z,100346.59
2019-03-15T03:02:54.727Z,100346.72
2019-03-15T03:05:27.322Z,100340.75
2019-03-15T03:07:59.701Z,100340.95
2019-03-15T03:10:32.384Z,100325.59
2019-03-15T03:13:04.753Z,100314.13
2019-03-15T03:15:36.946Z,100311.16
2019-03-15T03:18:09.244Z,100313.38
2019-03-15T03:20:41.958Z,100302.23
2019-03-15T03:23:14.414Z,100307.09
2019-03-15T03:25:46.710Z,100305.37
2019-03-15T03:28:18.878Z,100305.88
2019-03-15T03:30:51.274Z,100303.74
2019-03-15T03:33:23.645Z,100312.03
2019-03-15T03:35:57.065Z,100314.69
2019-03-15T03:38:29.625Z,100315.98
2019-03-15T03:41:01.873Z,100311.67
2019-03-15T03:43:34.254Z,100309.10
2019-03-15T03:46:06.622Z,100313.88
2019-03-15T03:48:39.285Z,100308.69
2019-03-15T03:51:12.938Z,100304.73
2019-03-15T03:53:45.989Z,100303.43
2019-03-15T03:56:18.298Z,100306.84
2019-03-15T03:58:50.981Z,100309.41
2019-03-15T04:01:23.343Z,100302.05
2019-03-15T04:03:55.689Z,100296.36
2019-03-15T04:06:27.966Z,100294.23
2019-03-15T04:09:00.951Z,100296.91
2019-03-15T04:11:35.356Z,100297.80
2019-03-15T04:14:07.952Z,100294.33
2019-03-15T04:16:40.591Z,100290.41
2019-03-15T04:19:12.898Z,100288.28
2019-03-15T04:21:45.647Z,100286.64
2019-03-15T04:24:17.941Z,100275.37
2019-03-15T04:26:50.301Z,100272.70
2019-03-15T04:29:23.069Z,100269.28
2019-03-15T04:31:56.621Z,100271.41
2019-03-15T04:34:29.014Z,100267.02
2019-03-15T04:37:01.558Z,100268.27
2019-03-15T04:39:34.333Z,100263.48
2019-03-15T04:42:07.614Z,100256.20
2019-03-15T04:44:39.837Z,100254.44
2019-03-15T04:47:12.220Z,100253.48
2019-03-15T04:49:44.823Z,100249.16
2019-03-15T04:52:18.420Z,100249.58
2019-03-15T04:54:50.735Z,100254.63
2019-03-15T04:57:23.289Z,100249.84
2019-03-15T04:59:57.765Z,100242.23
2019-03-15T05:02:30.205Z,100236.56
2019-03-15T05:05:03.705Z,100236.56
2019-03-15T05:07:36.075Z,100220.97
2019-03-15T05:10:08.468Z,100220.27
2019-03-15T05:12:40.756Z,100217.15
2019-03-15T05:15:13.487Z,100211.90
2019-03-15T05:17:45.638Z,100215.80
2019-03-15T05:20:21.018Z,100204.50
2019-03-15T05:22:52.561Z,100200.59
2019-03-15T05:25:24.867Z,100200.55
2019-03-15T05:27:57.389Z,100207.03
2019-03-15T05:30:29.963Z,100204.72
2019-03-15T05:33:02.378Z,100203.81
2019-03-15T05:35:34.853Z,100203.73
2019-03-15T05:38:08.636Z,100192.86
2019-03-15T05:40:41.743Z,100192.64
2019-03-15T05:43:14.433Z,100180.73
2019-03-15T05:45:46.793Z,100175.38
2019-03-15T05:48:19.122Z,100174.69
2019-03-15T05:50:51.405Z,100166.41
2019-03-15T05:53:23.529Z,100164.97
2019-03-15T05:55:55.998Z,100159.37
2019-03-15T05:58:28.541Z,100160.20
2019-03-15T06:01:00.913Z,100158.48
2019-03-15T06:03:33.496Z,100155.00
2019-03-15T06:06:05.934Z,100157.12
2019-03-15T06:08:38.257Z,100152.87
2019-03-15T06:11:12.453Z,100150.97
2019-03-15T06:13:45.071Z,100147.38
2019-03-15T06:16:17.708Z,100145.45
2019-03-15T06:18:49.965Z,100139.30
2019-03-15T06:21:22.125Z,100137.99
2019-03-15T06:23:54.696Z,100122.05
2019-03-15T06:26:27.049Z,100122.45
2019-03-15T06:29:01.637Z,100122.43
2019-03-15T06:31:34.295Z,100117.23
2019-03-15T06:34:06.689Z,100107.00
2019-03-15T06:36:40.061Z,100107.85
2019-03-15T06:39:12.396Z,100096.17
2019-03-15T06:41:46.265Z,100091.37
2019-03-15T06:44:19.040Z,100093.97
2019-03-15T06:46:51.288Z,100089.17
2019-03-15T06:49:24.005Z,100076.22
2019-03-15T06:51:57.914Z,100061.55
2019-03-15T06:54:31.361Z,100079.76
2019-03-15T06:57:03.769Z,100072.19
2019-03-15T06:59:37.491Z,100060.66
2019-03-15T07:02:11.002Z,100080.53
2019-03-15T07:04:44.084Z,100069.80
2019-03-15T07:07:16.605Z,100063.47
2019-03-15T07:09:49.056Z,100063.27
2019-03-15T07:12:21.722Z,100055.81
2019-03-15T07:14:54.551Z,100048.94
2019-03-15T07:17:27.232Z,100044.37
2019-03-15T07:19:59.407Z,100034.04
2019-03-15T07:22:34.261Z,100029.47
2019-03-15T07:25:06.533Z,100028.31
2019-03-15T07:27:42.198Z,100033.66
2019-03-15T07:30:13.021Z,100026.05
2019-03-15T07:32:46.202Z,100021.41
2019-03-15T07:35:19.028Z,100018.08
2019-03-15T07:37:51.341Z,100021.73
2019-03-15T07:40:23.782Z,100020.58
2019-03-15T07:42:59.758Z,100007.47
2019-03-15T07:45:30.402Z,100008.53
2019-03-15T07:48:03.078Z,99997.02
2019-03-15T07:50:35.384Z,100005.76
2019-03-15T07:53:07.987Z,100007.66
2019-03-15T07:55:40.363Z,100014.23
2019-03-15T07:58:12.612Z,100017.36
2019-03-15T08:00:44.956Z,100011.44
2019-03-15T08:03:17.178Z,100005.95
2019-03-15T08:05:49.759Z,100009.55
2019-03-15T08:08:23.690Z,100005.83
2019-03-15T08:10:55.970Z,99999.47
2019-03-15T08:13:28.424Z,99994.95
2019-03-15T08:16:01.597Z,99989.92
2019-03-15T08:18:33.959Z,99991.48
2019-03-15T08:21:06.452Z,100012.14
2019-03-15T08:23:38.570Z,100009.03
2019-03-15T08:26:10.909Z,100007.27
2019-03-15T08:28:43.203Z,100016.41
2019-03-15T08:31:23.281Z,100011.95
2019-03-15T08:33:57.292Z,100002.22
2019-03-15T08:36:29.579Z,100002.55
2019-03-15T08:39:02.008Z,100010.13
2019-03-15T08:41:34.486Z,100019.75
2019-03-15T08:44:06.892Z,100018.52
2019-03-15T08:46:39.207Z,100042.85
2019-03-15T08:49:11.562Z,100021.94
2019-03-15T08:51:43.918Z,100032.41
2019-03-15T08:54:16.391Z,100022.60
2019-03-15T08:56:48.922Z,100022.83
2019-03-15T08:59:21.481Z,100027.83
2019-03-15T09:01:53.908Z,100035.30
2019-03-15T09:04:26.197Z,100030.13
2019-03-15T09:07:00.783Z,100041.92
2019-03-15T09:09:35.962Z,100041.97
2019-03-15T09:12:07.994Z,100049.33
2019-03-15T09:14:40.564Z,100057.16
2019-03-15T09:17:12.930Z,100062.93
2019-03-15T09:19:45.412Z,100084.31
2019-03-15T09:22:17.928Z,100069.59
2019-03-15T09:24:50.257Z,100070.84
2019-03-15T09:27:22.786Z,100075.14
2019-03-15T09:29:55.131Z,100083.37
2019-03-15T09:32:27.392Z,100082.95
2019-03-15T09:34:59.663Z,100072.55
2019-03-15T09:37:34.014Z,100069.70
2019-03-15T09:40:06.221Z,100063.39
2019-03-15T09:42:38.508Z,100066.13
2019-03-15T09:45:10.845Z,100075.39
2019-03-15T09:47:43.103Z,100074.60
2019-03-15T09:50:26.505Z,100078.17
2019-03-15T09:52:51.655Z,100093.50
2019-03-15T09:55:32.925Z,100073.45
2019-03-15T09:57:57.757Z,100093.97
2019-03-15T10:00:30.123Z,100091.34
2019-03-15T10:03:03.543Z,100084.32
2019-03-15T10:05:35.746Z,100118.78
2019-03-15T10:08:08.105Z,100095.20
2019-03-15T10:10:40.641Z,100094.31
2019-03-15T10:13:14.983Z,100093.46
2019-03-15T10:15:47.364Z,100096.12
2019-03-15T10:18:19.616Z,100080.89
2019-03-15T10:20:52.374Z,100102.25
2019-03-15T10:23:24.616Z,100103.06
2019-03-15T10:25:56.932Z,100112.37
2019-03-15T10:28:29.483Z,100112.88
2019-03-15T10:31:02.079Z,100117.48
2019-03-15T10:33:35.402Z,100113.92
2019-03-15T10:36:07.636Z,100102.14
2019-03-15T10:38:39.868Z,100109.09
2019-03-15T10:41:12.168Z,100105.70
2019-03-15T10:43:44.461Z,100104.48
2019-03-15T10:46:16.885Z,100107.65
2019-03-15T10:48:50.248Z,100116.48
2019-03-15T10:51:24.146Z,100112.66
2019-03-15T10:53:56.670Z,100107.95
2019-03-15T10:56:29.147Z,100124.99
2019-03-15T10:59:01.975Z,100119.72
2019-03-15T11:01:35.405Z,100131.01
2019-03-15T11:04:07.684Z,100124.06
2019-03-15T11:06:42.295Z,100127.98
2019-03-15T11:09:14.729Z,100131.06
2019-03-15T11:11:47.029Z,100120.67
2019-03-15T11:14:19.564Z,100139.50
2019-03-15T11:16:52.122Z,100129.52
2019-03-15T11:19:24.765Z,100133.88
2019-03-15T11:21:57.208Z,100117.81
2019-03-15T11:24:29.699Z,100099.59
2019-03-15T11:27:02.255Z,100122.88
2019-03-15T11:29:34.645Z,100127.33
2019-03-15T11:32:07.009Z,100115.19
2019-03-15T11:34:39.513Z,100117.88
2019-03-15T11:37:11.886Z,100126.73
2019-03-15T11:39:44.424Z,100116.30
2019-03-15T11:42:16.738Z,100116.77
2019-03-15T11:44:49.165Z,100130.80
2019-03-15T11:47:21.437Z,100132.59
2019-03-15T11:49:53.668Z,100140.89
2019-03-15T11:52:25.945Z,100132.16
2019-03-15T11:54:58.285Z,100141.34
2019-03-15T11:57:30.643Z,100137.78
2019-03-15T12:00:02.898Z,100134.97
2019-03-15T12:02:35.675Z,100125.78
2019-03-15T12:05:08.284Z,100124.06
2019-03-15T12:07:40.823Z,100120.62
2019-03-15T12:10:13.067Z,100109.67
2019-03-15T12:12:45.465Z,100125.45
2019-03-15T12:15:17.795Z,100123.34
2019-03-15T12:17:50.044Z,100145.27
2019-03-15T12:20:22.488Z,100136.07
2019-03-15T12:22:54.706Z,100130.81
2019-03-15T12:25:26.977Z,100129.95
2019-03-15T12:27:59.602Z,100116.41
2019-03-15T12:30:32.022Z,100144.75
2019-03-15T12:33:04.271Z,100134.52
2019-03-15T12:35:36.593Z,100147.70
2019-03-15T12:38:08.937Z,100151.79
2019-03-15T12:40:42.304Z,100129.17
2019-03-15T12:43:14.548Z,100129.41
2019-03-15T12:45:46.831Z,100128.05
2019-03-15T12:48:19.151Z,100141.94
2019-03-15T12:50:51.475Z,100130.72
2019-03-15T12:53:23.740Z,100125.23
2019-03-15T12:55:55.992Z,100130.16
2019-03-15T12:58:28.239Z,100130.20
2019-03-15T13:01:00.478Z,100155.47
2019-03-15T13:03:32.859Z,100153.61
2019-03-15T13:06:05.187Z,100145.71
2019-03-15T13:08:37.456Z,100118.73
2019-03-15T13:11:09.687Z,100117.86
2019-03-15T13:13:41.984Z,100109.22
2019-03-15T13:16:14.251Z,100099.67
2019-03-15T13:18:46.469Z,100126.30
2019-03-15T13:21:20.754Z,100125.52
2019-03-15T13:23:53.063Z,100123.34
2019-03-15T13:26:25.121Z,100131.55
2019-03-15T13:28:57.510Z,100139.75
2019-03-15T13:31:29.822Z,100134.50
2019-03-15T13:34:02.050Z,100142.73
2019-03-15T13:36:34.391Z,100144.48
2019-03-15T13:39:06.607Z,100132.41
2019-03-15T13:41:39.220Z,100134.69
2019-03-15T13:44:11.452Z,100142.02
2019-03-15T13:46:43.881Z,100131.03
2019-03-15T13:49:16.096Z,100134.45
2019-03-15T13:51:48.351Z,100154.84
2019-03-15T13:54:20.770Z,100162.11
2019-03-15T13:56:53.223Z,100159.25
2019-03-15T13:59:26.574Z,100166.48
2019-03-15T14:01:58.845Z,100178.03
2019-03-15T14:04:31.158Z,100189.64
2019-03-15T14:07:03.979Z,100182.22
2019-03-15T14:09:36.309Z,100192.20
2019-03-15T14:12:08.665Z,100201.31
2019-03-15T14:14:40.901Z,100209.11
2019-03-15T14:17:13.436Z,100210.17
2019-03-15T14:19:45.679Z,100217.94
2019-03-15T14:22:17.952Z,100220.97
2019-03-15T14:24:50.212Z,100226.16
2019-03-15T14:27:36.447Z,100205.77
2019-03-15T14:29:58.133Z,100228.11
2019-03-15T14:32:30.359Z,100222.61
2019-03-15T14:35:02.613Z,100225.33
2019-03-15T14:37:35.103Z,100217.03
2019-03-15T14:40:07.609Z,100218.72
2019-03-15T14:42:40.328Z,100234.64
2019-03-15T14:45:12.729Z,100236.33
2019-03-15T14:47:45.085Z,100235.45
2019-03-15T14:50:17.304Z,100231.41
2019-03-15T14:52:49.584Z,100240.94
2019-03-15T14:55:21.939Z,100247.42
2019-03-15T14:57:54.187Z,100242.55
2019-03-15T15:00:26.433Z,100252.52
2019-03-15T15:02:58.689Z,100248.15
2019-03-15T15:05:33.075Z,100258.55
2019-03-15T15:08:05.270Z,100274.93
2019-03-15T15:10:37.592Z,100295.16
2019-03-15T15:13:09.959Z,100311.56
2019-03-15T15:15:42.234Z,100299.17
2019-03-15T15:18:14.507Z,100299.91
2019-03-15T15:20:46.711Z,100302.89
2019-03-15T15:23:19.067Z,100316.39
2019-03-15T15:25:51.401Z,100315.05
2019-03-15T15:28:23.637Z,100314.16
2019-03-15T15:30:55.882Z,100322.50
2019-03-15T15:33:28.215Z,100309.66
2019-03-15T15:36:00.562Z,100323.16
2019-03-15T15:38:32.804Z,100324.28
2019-03-15T15:41:05.243Z,100314.58
2019-03-15T15:43:38.601Z,100314.53
2019-03-15T15:46:13.184Z,100319.22
2019-03-15T15:48:45.452Z,100319.95
2019-03-15T15:51:17.751Z,100328.09
2019-03-15T15:53:50.437Z,100320.58
2019-03-15T15:56:22.875Z,100316.25
2019-03-15T15:58:55.179Z,100317.50
2019-03-15T16:01:27.715Z,100313.96
2019-03-15T16:03:59.907Z,100322.20
2019-03-15T16:06:32.433Z,100316.20
2019-03-15T16:09:04.680Z,100326.22
2019-03-15T16:11:38.591Z,100325.33
2019-03-15T16:14:10.803Z,100339.23
2019-03-15T16:16:43.111Z,100335.70
2019-03-15T16:19:15.525Z,100331.02
2019-03-15T16:21:47.821Z,100332.01
2019-03-15T16:24:20.148Z,100342.48
2019-03-15T16:26:52.512Z,100343.27
2019-03-15T16:29:24.974Z,100338.73
2019-03-15T16:31:57.475Z,100340.38
2019-03-15T16:34:29.934Z,100338.57
2019-03-15T16:37:02.310Z,100348.10
2019-03-15T16:39:34.684Z,100360.23
2019-03-15T16:42:07.001Z,100362.27
2019-03-15T16:44:39.581Z,100375.66
2019-03-15T16:47:11.930Z,100370.85
2019-03-15T16:49:44.303Z,100384.72
2019-03-15T16:52:16.603Z,100374.41
2019-03-15T16:54:49.819Z,100387.39
2019-03-15T16:57:22.481Z,100389.16
2019-03-15T16:59:55.051Z,100382.59
2019-03-15T17:02:29.172Z,100387.80
2019-03-15T17:05:02.049Z,100384.23
2019-03-15T17:07:34.747Z,100389.87
2019-03-15T17:10:07.587Z,100392.52
2019-03-15T17:12:39.881Z,100392.05
2019-03-15T17:15:12.162Z,100395.84
2019-03-15T17:17:44.638Z,100405.09
2019-03-15T17:20:18.456Z,100413.08
2019-03-15T17:22:52.228Z,100415.70
2019-03-15T17:25:24.578Z,100425.69
2019-03-15T17:27:56.902Z,100428.64
2019-03-15T17:30:31.106Z,100433.24
2019-03-15T17:33:06.157Z,100445.74
2019-03-15T17:35:37.495Z,100450.61
2019-03-15T17:38:09.860Z,100453.66
2019-03-15T17:40:42.199Z,100459.72
2019-03-15T17:43:14.425Z,100461.47
2019-03-15T17:45:46.781Z,100461.91
2019-03-15T17:48:18.973Z,100455.81
2019-03-15T17:50:51.237Z,100456.70
2019-03-15T17:53:24.561Z,100458.77
2019-03-15T17:55:56.850Z,100464.37
2019-03-15T17:58:29.343Z,100465.38
2019-03-15T18:01:01.846Z,100471.15
2019-03-15T18:03:34.243Z,100480.41
2019-03-15T18:06:07.827Z,100493.95
2019-03-15T18:08:40.061Z,100492.65
2019-03-15T18:11:12.412Z,100500.47
2019-03-15T18:13:44.687Z,100498.62
2019-03-15T18:16:16.968Z,100506.31
2019-03-15T18:18:49.390Z,100515.30
2019-03-15T18:21:21.626Z,100517.70
2019-03-15T18:23:53.983Z,100524.12
2019-03-15T18:26:26.662Z,100529.06
2019-03-15T18:28:59.207Z,100525.81
2019-03-15T18:31:31.472Z,100531.56
2019-03-15T18:34:03.864Z,100537.02
2019-03-15T18:36:36.391Z,100534.17
2019-03-15T18:39:08.762Z,100543.16
2019-03-15T18:41:41.611Z,100549.26
2019-03-15T18:44:13.879Z,100550.00
2019-03-15T18:46:46.529Z,100554.95
2019-03-15T18:49:18.972Z,100566.19
2019-03-15T18:51:52.473Z,100568.38
2019-03-15T18:54:24.702Z,100568.87
2019-03-15T18:56:57.015Z,100559.74
2019-03-15T18:59:39.357Z,100562.53
2019-03-15T19:02:03.416Z,100566.67
2019-03-15T19:04:35.897Z,100563.81
2019-03-15T19:07:08.307Z,100572.35
2019-03-15T19:09:40.587Z,100566.94
2019-03-15T19:12:12.963Z,100576.34
2019-03-15T19:14:45.861Z,100584.48
2019-03-15T19:17:18.442Z,100588.45
2019-03-15T19:19:50.705Z,100592.28
2019-03-15T19:22:23.209Z,100611.14
2019-03-15T19:24:55.590Z,100615.02
2019-03-15T19:27:27.884Z,100630.05
2019-03-15T19:30:00.392Z,100634.73
2019-03-15T19:32:33.613Z,100635.56
2019-03-15T19:35:06.389Z,100629.45
2019-03-15T19:37:38.741Z,100629.39
2019-03-15T19:40:11.032Z,100623.20
2019-03-15T19:42:45.520Z,100626.85
2019-03-15T19:45:17.550Z,100619.75
2019-03-15T19:47:49.894Z,100620.32
2019-03-15T19:50:24.583Z,100627.86
2019-03-15T19:52:57.122Z,100625.00
2019-03-15T19:55:32.217Z,100630.75
2019-03-15T19:58:04.707Z,100632.05
2019-03-15T20:00:37.348Z,100643.91
2019-03-15T20:03:10.781Z,100644.41
2019-03-15T20:05:43.480Z,100647.91
2019-03-15T20:08:15.841Z,100647.42
2019-03-15T20:10:48.209Z,100649.14
2019-03-15T20:13:20.516Z,100650.91
2019-03-15T20:15:53.249Z,100670.87
2019-03-15T20:18:25.698Z,100651.83
2019-03-15T20:20:58.227Z,100656.31
2019-03-15T20:23:30.980Z,100653.23
2019-03-15T20:26:03.524Z,100646.64
2019-03-15T20:28:35.884Z,100649.23
2019-03-15T20:31:09.217Z,100655.83
2019-03-15T20:33:41.543Z,100660.75
2019-03-15T20:36:13.838Z,100669.08
2019-03-15T20:38:47.105Z,100665.22
2019-03-15T20:41:19.807Z,100678.45
2019-03-15T20:43:52.333Z,100674.00
2019-03-15T20:46:35.150Z,100667.57
2019-03-15T20:48:58.673Z,100670.17
2019-03-15T20:51:31.022Z,100665.80
2019-03-15T20:54:03.727Z,100672.67
2019-03-15T20:56:35.824Z,100668.23
2019-03-15T20:59:09.437Z,100673.73
2019-03-15T21:01:41.769Z,100676.23
2019-03-15T21:04:14.066Z,100687.04
2019-03-15T21:06:46.330Z,100687.89
2019-03-15T21:09:18.709Z,100690.12
2019-03-15T21:11:50.929Z,100704.74
2019-03-15T21:14:23.262Z,100699.91
2019-03-15T21:16:55.564Z,100689.42
2019-03-15T21:19:27.798Z,100704.39
2019-03-15T21:22:00.165Z,100700.94
2019-03-15T21:24:32.398Z,100694.79
2019-03-15T21:27:04.664Z,100690.89
2019-03-15T21:29:36.921Z,100699.16
2019-03-15T21:32:09.250Z,100706.48
2019-03-15T21:34:41.818Z,100708.42
2019-03-15T21:37:14.052Z,100713.50
2019-03-15T21:39:46.322Z,100717.98
2019-03-15T21:42:18.359Z,100710.61
2019-03-15T21:44:50.741Z,100715.41
2019-03-15T21:47:23.036Z,100720.67
2019-03-15T21:49:55.300Z,100720.06
2019-03-15T21:52:27.640Z,100721.59
2019-03-15T21:55:00.022Z,100733.33
2019-03-15T21:57:32.286Z,100724.63
2019-03-15T22:00:05.723Z,100733.73
2019-03-15T22:02:38.183Z,100749.41
2019-03-15T22:05:10.881Z,100747.40
2019-03-15T22:07:44.118Z,100745.05
2019-03-15T22:10:16.334Z,100748.30
2019-03-15T22:12:48.601Z,100752.90
2019-03-15T22:15:20.906Z,100750.23
2019-03-15T22:17:53.273Z,100758.89
2019-03-15T22:20:25.726Z,100764.09
2019-03-15T22:22:58.161Z,100759.88
2019-03-15T22:25:30.524Z,100769.73
2019-03-15T22:28:02.727Z,100772.72
2019-03-15T22:30:35.040Z,100779.33
2019-03-15T22:33:08.448Z,100774.22
2019-03-15T22:35:41.906Z,100773.87
2019-03-15T22:38:25.604Z,100786.66
2019-03-15T22:40:48.298Z,100785.61
2019-03-15T22:43:20.607Z,100788.74
2019-03-15T22:45:52.826Z,100777.98
2019-03-15T22:48:25.099Z,100774.88
2019-03-15T22:50:57.237Z,100781.09
2019-03-15T22:53:29.885Z,100781.03
2019-03-15T22:56:02.611Z,100778.91
2019-03-15T22:58:35.556Z,100772.78
2019-03-15T23:01:07.806Z,100774.91
2019-03-15T23:03:41.908Z,100779.37
2019-03-15T23:06:14.212Z,100776.36
2019-03-15T23:08:46.439Z,100772.87
2019-03-15T23:11:18.751Z,100790.68
2019-03-15T23:13:50.995Z,100795.47
2019-03-15T23:16:23.202Z,100792.39
2019-03-15T23:18:55.532Z,100786.20
2019-03-15T23:21:27.748Z,100790.84
2019-03-15T23:23:59.994Z,100780.02
2019-03-15T23:26:32.298Z,100772.59
2019-03-15T23:29:04.670Z,100786.78
2019-03-15T23:31:43.406Z,100791.63
2019-03-15T23:34:11.150Z,100796.36
2019-03-15T23:36:43.418Z,100807.16
2019-03-15T23:39:16.825Z,100801.47
2019-03-15T23:41:49.031Z,100797.57
2019-03-15T23:44:21.262Z,100804.87
2019-03-15T23:46:54.026Z,100794.71
2019-03-15T23:49:26.238Z,100804.70
2019-03-15T23:51:58.488Z,100812.89
2019-03-15T23:54:30.781Z,100809.72
2019-03-15T23:57:03.030Z,100802.80
2019-03-15T23:59:35.647Z,100812.25
